Time;durP1;ratioP1;P1;durP2;ratioP2;P2;SDS_P1;SDS_P2;PMS_P1;PMS_P2;Temp;Humidity;BMP_temperature;BMP_pressure;BME280_temperature;BME280_humidity;BME280_pressure;Samples;Min_cycle;Max_cycle;Signal;HPM_P1;HPM_P2
2022/06/12 00:01:20;;;;;;;;;1.00;1.00;;;;;20.98;65.34;102135.75;5055472;28;65869;-71
2022/06/12 00:03:47;;;;;;;;;3.33;1.00;;;;;20.95;65.12;102124.16;5056497;28;45464;-71
2022/06/12 00:06:14;;;;;;;;;2.67;1.00;;;;;20.90;66.46;102122.41;5056953;28;45251;-71
2022/06/12 00:08:41;;;;;;;;;3.00;2.00;;;;;20.87;66.16;102125.13;5054962;28;45945;-71
2022/06/12 00:11:08;;;;;;;;;4.00;1.67;;;;;20.82;65.90;102116.22;5055426;28;45434;-71
2022/06/12 00:13:37;;;;;;;;;2.00;2.00;;;;;20.77;66.93;102118.06;5056641;28;45319;-71
2022/06/12 00:16:04;;;;;;;;;1.67;1.00;;;;;20.74;67.64;102122.59;5055204;28;45580;-71
2022/06/12 00:18:30;;;;;;;;;2.33;1.00;;;;;20.70;67.29;102124.41;5054871;28;45765;-71
2022/06/12 00:21:10;;;;;;;;;3.00;3.00;;;;;20.67;67.78;102124.47;5055148;28;45326;-71
2022/06/12 00:23:40;;;;;;;;;6.00;4.00;;;;;20.64;68.29;102121.81;5055831;28;45296;-71
2022/06/12 00:26:05;;;;;;;;;6.00;4.33;;;;;20.60;68.58;102126.31;5056622;28;45536;-71
2022/06/12 00:28:31;;;;;;;;;7.67;4.33;;;;;20.59;68.44;102124.53;5054831;28;45828;-71
2022/06/12 00:30:56;;;;;;;;;12.67;7.33;;;;;20.55;69.13;102127.25;5055680;28;45245;-71
2022/06/12 00:33:22;;;;;;;;;18.67;9.00;;;;;20.50;69.05;102126.41;5055608;28;63282;-71
2022/06/12 00:35:47;;;;;;;;;14.67;8.33;;;;;20.47;69.88;102121.97;5056262;28;45503;-71
2022/06/12 00:38:12;;;;;;;;;11.67;11.33;;;;;20.44;70.07;102134.47;5055591;28;62966;-71
2022/06/12 00:40:38;;;;;;;;;14.67;9.00;;;;;20.41;71.25;102130.94;5055199;28;63806;-70
2022/06/12 00:43:04;;;;;;;;;10.67;9.33;;;;;20.36;71.83;102129.19;5056250;28;47424;-70
2022/06/12 00:45:33;;;;;;;;;16.00;9.67;;;;;20.31;73.15;102139.97;5055378;28;45465;-70
2022/06/12 00:48:01;;;;;;;;;13.00;11.67;;;;;20.27;73.19;102127.47;5055057;28;46144;-71
2022/06/12 00:50:28;;;;;;;;;19.33;9.33;;;;;20.24;74.05;102130.19;5054706;28;45558;-71
2022/06/12 00:52:55;;;;;;;;;9.00;6.00;;;;;20.18;75.85;102124.84;5055166;28;45467;-70
2022/06/12 00:55:27;;;;;;;;;10.67;6.00;;;;;20.14;75.19;102125.81;5059504;28;59101;-69
2022/06/12 00:57:57;;;;;;;;;4.00;2.33;;;;;20.12;75.14;102125.78;5058144;28;46806;-70
2022/06/12 01:00:23;;;;;;;;;8.67;5.00;;;;;20.10;75.46;102129.41;5059403;28;45506;-70
2022/06/12 01:02:48;;;;;;;;;8.67;5.00;;;;;20.05;76.22;102123.19;5034838;28;45509;-71
2022/06/12 01:08:04;;;;;;;;;2.67;1.00;;;;;19.98;77.88;102124.16;5058947;28;45467;-71
2022/06/12 01:10:30;;;;;;;;;4.67;4.67;;;;;19.93;77.71;102128.66;5058088;28;45514;-70
2022/06/12 01:13:01;;;;;;;;;2.67;2.67;;;;;19.88;78.96;102134.94;5057899;28;45505;-69
2022/06/12 01:15:37;;;;;;;;;3.33;3.33;;;;;19.85;77.99;102134.03;5058125;28;45297;-70
2022/06/12 01:18:06;;;;;;;;;5.33;3.00;;;;;19.82;78.18;102134.97;5058032;28;45555;-71
2022/06/12 01:20:39;;;;;;;;;7.00;2.67;;;;;19.77;78.86;102134.09;5058306;28;45418;-70
2022/06/12 01:23:23;;;;;;;;;3.33;2.00;;;;;19.77;78.69;102135.91;5057220;28;45166;-70
2022/06/12 01:25:58;;;;;;;;;4.00;3.33;;;;;19.73;78.66;102136.81;5057788;28;45252;-71
2022/06/12 01:28:58;;;;;;;;;7.67;2.67;;;;;19.70;79.38;102139.50;5047127;28;46643;-70
2022/06/12 01:31:36;;;;;;;;;9.00;3.00;;;;;19.65;79.20;102138.63;5039761;28;45371;-70
2022/06/12 01:34:11;;;;;;;;;6.00;4.00;;;;;19.63;80.17;102144.00;5053429;28;45401;-69
2022/06/12 01:36:57;;;;;;;;;5.67;2.33;;;;;19.56;80.02;102129.72;5059145;28;45347;-69
2022/06/12 01:39:41;;;;;;;;;5.67;2.67;;;;;19.53;80.27;102132.41;5057464;28;46841;-70
2022/06/12 01:42:15;;;;;;;;;11.33;4.00;;;;;19.48;81.45;102133.34;5057208;28;45346;-70
2022/06/12 01:45:14;;;;;;;;;5.33;2.00;;;;;19.42;80.39;102136.94;5058852;28;45307;-70
2022/06/12 01:47:52;;;;;;;;;4.33;2.00;;;;;19.36;80.29;102142.31;5058057;28;45347;-71
2022/06/12 01:50:35;;;;;;;;;4.33;2.33;;;;;19.29;80.60;102144.16;5058742;28;47645;-71
2022/06/12 01:53:09;;;;;;;;;4.67;2.67;;;;;19.28;81.85;102146.81;5047388;28;45506;-70
2022/06/12 01:55:50;;;;;;;;;4.00;2.00;;;;;19.23;82.08;102149.53;5058520;28;45197;-70
2022/06/12 01:58:45;;;;;;;;;4.33;1.33;;;;;19.19;81.82;102152.22;5056359;28;45339;-70
2022/06/12 02:01:29;;;;;;;;;1.67;1.33;;;;;19.16;81.60;102154.91;5040725;28;46534;-70
2022/06/12 02:04:06;;;;;;;;;2.33;2.33;;;;;19.11;82.17;102154.91;5057639;28;45337;-70
2022/06/12 02:06:52;;;;;;;;;4.00;1.33;;;;;19.06;82.33;102149.56;5058210;28;45373;-70
2022/06/12 02:09:30;;;;;;;;;3.00;3.00;;;;;19.04;82.29;102155.81;5057084;28;45355;-70
2022/06/12 02:15:13;;;;;;;;;3.00;2.00;;;;;18.97;83.58;102154.06;5057178;28;45431;-70
2022/06/12 02:17:45;;;;;;;;;3.33;3.00;;;;;18.92;83.76;102154.09;5058379;28;45291;-71
2022/06/12 02:20:13;;;;;;;;;6.00;2.67;;;;;18.91;83.43;102154.06;5058561;28;45398;-70
2022/06/12 02:22:43;;;;;;;;;6.00;2.00;;;;;18.87;84.30;102157.66;5057126;28;46891;-70
2022/06/12 02:25:09;;;;;;;;;4.00;2.00;;;;;18.87;84.40;102155.00;5056979;28;45209;-70
2022/06/12 02:27:48;;;;;;;;;2.00;2.00;;;;;18.83;84.57;102159.44;5057830;28;45406;-69
2022/06/12 02:30:16;;;;;;;;;4.33;2.33;;;;;18.77;85.25;102160.34;5040040;28;45521;-70
2022/06/12 02:33:05;;;;;;;;;4.33;4.00;;;;;18.71;85.90;102156.81;5057658;28;45504;-70
2022/06/12 02:35:47;;;;;;;;;6.00;3.00;;;;;18.64;86.37;102158.53;5056788;28;45263;-70
2022/06/12 02:38:16;;;;;;;;;6.67;3.00;;;;;18.60;86.67;102156.78;5056699;28;46772;-69
2022/06/12 02:40:46;;;;;;;;;6.00;3.00;;;;;18.58;86.81;102158.53;5054059;28;45496;-70
2022/06/12 02:43:15;;;;;;;;;3.33;2.00;;;;;18.55;87.06;102158.56;5056777;28;46226;-70
2022/06/12 02:45:45;;;;;;;;;2.00;2.00;;;;;18.50;87.26;102155.00;5056323;28;45473;-70
2022/06/12 02:48:11;;;;;;;;;4.00;3.00;;;;;18.46;87.28;102161.25;5056863;28;45364;-70
2022/06/12 02:50:49;;;;;;;;;3.33;2.00;;;;;18.42;87.53;102156.78;5055899;28;59700;-70
2022/06/12 02:53:27;;;;;;;;;5.67;3.00;;;;;18.39;89.41;102160.34;5056700;28;46365;-70
2022/06/12 02:55:52;;;;;;;;;6.33;3.00;;;;;18.34;88.80;102164.81;5056690;28;45388;-70
2022/06/12 02:59:02;;;;;;;;;7.33;3.00;;;;;18.27;89.40;102155.91;5057197;28;45414;-70
2022/06/12 03:01:36;;;;;;;;;5.33;3.00;;;;;18.22;88.89;102151.44;5054538;28;45550;-70
2022/06/12 03:04:07;;;;;;;;;3.67;2.00;;;;;18.18;89.96;102158.56;5045002;28;46747;-70
2022/06/12 03:06:34;;;;;;;;;4.00;3.00;;;;;18.13;90.71;102157.66;5073606;28;45557;-69
2022/06/12 03:09:00;;;;;;;;;6.00;3.00;;;;;18.11;90.44;102159.47;5058618;28;45321;-70
2022/06/12 03:11:36;;;;;;;;;2.67;2.00;;;;;18.09;90.83;102157.66;5056476;28;45382;-70
2022/06/12 03:14:08;;;;;;;;;6.00;3.00;;;;;18.08;91.05;102162.13;5056185;28;45695;-70
2022/06/12 03:16:37;;;;;;;;;4.33;3.00;;;;;18.08;91.41;102147.84;5055638;28;45486;-69
2022/06/12 03:19:05;;;;;;;;;3.67;3.00;;;;;18.05;92.07;102156.75;5055948;28;45489;-70
2022/06/12 03:21:57;;;;;;;;;3.00;3.00;;;;;18.02;92.12;102152.31;5057698;28;45335;-70
2022/06/12 03:24:52;;;;;;;;;4.67;2.00;;;;;18.00;93.84;102159.44;5057086;28;47893;-69
2022/06/12 03:27:42;;;;;;;;;2.33;2.33;;;;;17.98;93.21;102161.19;5056987;28;45505;-70
2022/06/12 03:30:16;;;;;;;;;7.00;3.33;;;;;17.96;92.81;102151.41;5057396;28;45435;-70
2022/06/12 03:33:01;;;;;;;;;7.00;2.33;;;;;17.94;92.74;102154.06;5055627;28;45614;-70
2022/06/12 03:35:48;;;;;;;;;4.00;3.00;;;;;17.94;92.86;102148.72;5055788;28;46264;-70
2022/06/12 03:38:31;;;;;;;;;2.00;2.00;;;;;17.93;92.90;102157.63;5057401;28;45379;-70
2022/06/12 03:40:59;;;;;;;;;6.00;1.00;;;;;17.94;93.33;102158.53;5057013;28;45472;-70
2022/06/12 03:43:24;;;;;;;;;2.00;2.00;;;;;17.95;93.47;102154.94;5057331;28;45350;-70
2022/06/12 03:46:00;;;;;;;;;3.33;2.00;;;;;17.92;95.08;102149.63;5056140;28;46626;-70
2022/06/12 03:48:35;;;;;;;;;4.00;3.00;;;;;17.90;93.91;102151.41;5055893;28;45517;-70
2022/06/12 03:51:09;;;;;;;;;3.33;2.00;;;;;17.86;94.03;102145.16;5055723;28;45375;-70
2022/06/12 03:54:02;;;;;;;;;6.00;3.67;;;;;17.87;94.13;102151.38;5056924;28;45501;-70
2022/06/12 03:59:34;;;;;;;;;4.67;2.00;;;;;17.86;93.95;102149.63;5056785;28;45409;-70
2022/06/12 04:02:02;;;;;;;;;4.33;3.00;;;;;17.85;94.32;102147.84;5055484;28;45339;-70
2022/06/12 04:04:31;;;;;;;;;4.33;3.00;;;;;17.83;94.38;102145.13;5055434;28;45377;-70
2022/06/12 04:06:59;;;;;;;;;5.67;2.00;;;;;17.79;96.11;102140.69;5055451;28;46576;-70
2022/06/12 04:09:26;;;;;;;;;8.00;4.00;;;;;17.80;94.67;102138.03;5056694;28;45318;-69
2022/06/12 04:11:55;;;;;;;;;4.00;2.00;;;;;17.79;95.37;102138.03;5055254;28;45307;-70
2022/06/12 04:14:24;;;;;;;;;5.00;2.33;;;;;17.76;94.47;102148.69;5055871;28;45327;-69
2022/06/12 04:16:52;;;;;;;;;6.67;3.00;;;;;17.78;94.96;102153.13;5055283;28;46699;-70
2022/06/12 04:19:21;;;;;;;;;7.33;3.00;;;;;17.76;95.63;102152.25;5055373;28;45316;-68
2022/06/12 04:22:09;;;;;;;;;4.33;2.67;;;;;17.75;94.97;102152.25;5041945;28;45398;-70
2022/06/12 04:24:43;;;;;;;;;5.67;4.00;;;;;17.73;95.33;102148.69;5038464;28;45487;-70
2022/06/12 04:27:24;;;;;;;;;3.00;3.00;;;;;17.71;95.77;102147.75;5038717;28;46408;-69
2022/06/12 04:30:00;;;;;;;;;3.00;3.00;;;;;17.68;96.10;102147.72;5059819;28;45343;-70
2022/06/12 04:32:27;;;;;;;;;6.33;3.00;;;;;17.68;95.71;102143.28;5059933;28;45406;-69
2022/06/12 04:34:53;;;;;;;;;6.00;1.00;;;;;17.69;95.80;102154.88;5058597;28;45653;-69
2022/06/12 04:37:22;;;;;;;;;5.00;4.00;;;;;17.72;96.28;102161.16;5059763;28;46563;-70
2022/06/12 04:39:48;;;;;;;;;4.00;3.00;;;;;17.70;96.29;102154.88;5049152;28;45335;-70
2022/06/12 04:42:16;;;;;;;;;7.67;4.00;;;;;17.70;96.61;102168.25;5058331;28;45507;-70
2022/06/12 04:44:41;;;;;;;;;3.00;2.00;;;;;17.70;96.70;102162.91;5058587;28;45606;-70
2022/06/12 04:47:07;;;;;;;;;7.00;3.33;;;;;17.68;97.16;102164.66;5058980;28;46754;-70
2022/06/12 04:49:35;;;;;;;;;5.67;3.33;;;;;17.67;97.44;102160.19;5053382;28;45763;-70
2022/06/12 04:52:04;;;;;;;;;6.33;3.00;;;;;17.68;97.32;102158.41;5059523;28;45415;-70
2022/06/12 04:54:30;;;;;;;;;7.00;2.33;;;;;17.66;98.56;102155.75;5057921;28;45284;-69
2022/06/12 04:56:57;;;;;;;;;6.00;3.00;;;;;17.70;97.75;102160.22;5059460;28;46363;-70
2022/06/12 04:59:22;;;;;;;;;4.67;3.00;;;;;17.69;97.65;102158.44;5058136;28;45264;-71
2022/06/12 05:01:48;;;;;;;;;2.00;1.00;;;;;17.69;98.01;102155.78;5057928;28;45870;-70
2022/06/12 05:04:14;;;;;;;;;4.33;3.00;;;;;17.69;98.42;102147.75;5058032;28;45344;-70
2022/06/12 05:06:40;;;;;;;;;8.33;3.00;;;;;17.70;99.51;102154.88;5058169;28;46042;-70
2022/06/12 05:09:07;;;;;;;;;4.00;2.33;;;;;17.71;98.44;102155.78;5056997;28;45520;-71
2022/06/12 05:11:33;;;;;;;;;6.00;4.67;;;;;17.74;98.42;102153.16;5056907;28;45456;-69
2022/06/12 05:13:59;;;;;;;;;5.00;4.00;;;;;17.75;98.71;102146.91;5057219;28;45572;-71
2022/06/12 05:16:29;;;;;;;;;5.33;3.00;;;;;17.75;97.98;102142.47;5056819;28;46654;-70
2022/06/12 05:18:55;;;;;;;;;6.33;3.00;;;;;17.75;98.65;102141.56;5055093;28;45633;-70
2022/06/12 05:21:21;;;;;;;;;7.67;3.33;;;;;17.75;98.36;102144.25;5057168;28;45403;-70
2022/06/12 05:23:47;;;;;;;;;5.33;3.00;;;;;17.75;99.23;102146.91;5058385;28;45453;-70
2022/06/12 05:26:16;;;;;;;;;11.00;3.33;;;;;17.71;99.31;102137.97;5059102;28;46221;-70
2022/06/12 05:28:42;;;;;;;;;3.00;3.00;;;;;17.70;100.00;102144.19;5057687;28;45419;-70
2022/06/12 05:31:07;;;;;;;;;3.67;3.00;;;;;17.67;100.00;102138.84;5058831;28;45581;-70
2022/06/12 05:33:32;;;;;;;;;5.00;4.00;;;;;17.69;100.00;102146.88;5062966;28;62086;-70
2022/06/12 05:35:58;;;;;;;;;4.67;4.00;;;;;17.70;100.00;102149.53;5059044;28;45543;-70
2022/06/12 05:38:24;;;;;;;;;8.33;3.00;;;;;17.72;100.00;102134.44;5058832;28;45395;-70
2022/06/12 05:40:49;;;;;;;;;5.33;4.33;;;;;17.75;99.97;102130.88;5058440;28;45392;-70
2022/06/12 05:43:15;;;;;;;;;8.00;3.00;;;;;17.78;100.00;102137.09;5059178;28;47191;-70
2022/06/12 05:45:40;;;;;;;;;8.00;4.00;;;;;17.79;100.00;102132.69;5057387;28;65358;-70
2022/06/12 05:48:18;;;;;;;;;6.00;4.67;;;;;17.78;100.00;102137.09;5058460;28;45443;-70
2022/06/12 05:51:03;;;;;;;;;7.00;3.33;;;;;17.81;100.00;102144.25;5057270;28;45247;-70
2022/06/12 05:53:30;;;;;;;;;7.33;3.00;;;;;17.85;99.88;102151.41;5059126;28;45192;-70
2022/06/12 05:55:56;;;;;;;;;7.67;3.00;;;;;17.91;100.00;102153.19;5058474;28;45511;-70
2022/06/12 05:58:24;;;;;;;;;5.00;2.00;;;;;17.95;99.57;102153.19;5057445;28;45396;-70
2022/06/12 06:00:50;;;;;;;;;7.00;4.00;;;;;17.96;99.40;102159.44;5057426;28;45539;-70
2022/06/12 06:03:15;;;;;;;;;4.00;3.00;;;;;17.96;99.30;102148.75;5058531;28;45551;-70
2022/06/12 06:05:42;;;;;;;;;3.00;3.00;;;;;17.98;98.76;102147.84;5058544;28;46175;-70
2022/06/12 06:08:08;;;;;;;;;2.00;2.00;;;;;18.01;98.30;102163.91;5057376;28;46265;-70
2022/06/12 06:10:34;;;;;;;;;4.33;4.33;;;;;18.08;98.05;102156.78;5058363;28;55423;-70
2022/06/12 06:13:00;;;;;;;;;8.33;2.67;;;;;18.20;97.58;102163.91;5058194;28;45429;-70
2022/06/12 06:15:25;;;;;;;;;3.00;3.00;;;;;18.25;96.99;102165.69;5056849;28;46619;-70
2022/06/12 06:17:52;;;;;;;;;8.00;2.00;;;;;18.28;96.34;102164.81;5058610;28;45302;-70
2022/06/12 06:20:22;;;;;;;;;8.33;3.00;;;;;18.29;95.84;102166.59;5057821;28;45528;-69
2022/06/12 06:22:49;;;;;;;;;6.33;3.00;;;;;18.28;96.31;102171.06;5058602;28;45518;-70
2022/06/12 06:25:14;;;;;;;;;7.33;3.00;;;;;18.29;95.21;102164.81;5058346;28;45523;-69
2022/06/12 06:27:40;;;;;;;;;5.00;3.33;;;;;18.32;95.10;102169.25;5056303;28;45252;-71
2022/06/12 06:30:06;;;;;;;;;4.00;3.67;;;;;18.36;94.69;102173.72;5057912;28;54731;-70
2022/06/12 06:32:32;;;;;;;;;3.00;2.00;;;;;18.41;94.70;102176.41;5056740;28;45469;-70
2022/06/12 06:34:58;;;;;;;;;3.67;2.00;;;;;18.45;94.18;102180.84;5058103;28;46032;-71
2022/06/12 06:37:23;;;;;;;;;7.00;3.33;;;;;18.45;94.57;102180.84;5073681;28;45509;-70
2022/06/12 06:39:48;;;;;;;;;7.67;4.00;;;;;18.48;94.48;102191.53;5058149;28;45457;-70
2022/06/12 06:42:14;;;;;;;;;4.00;2.33;;;;;18.49;95.25;102180.88;5057048;28;56304;-70
2022/06/12 06:47:40;;;;;;;;;7.00;3.00;;;;;18.55;94.60;102174.63;4994555;28;45518;-70
2022/06/12 06:50:07;;;;;;;;;2.33;2.33;;;;;18.58;93.73;102174.59;5035288;28;60197;-70
2022/06/12 06:52:33;;;;;;;;;4.00;4.00;;;;;18.61;94.05;102176.41;5056879;28;45339;-70
2022/06/12 06:54:59;;;;;;;;;5.33;3.33;;;;;18.65;93.78;102178.19;5057548;28;46807;-70
2022/06/12 06:57:24;;;;;;;;;3.67;3.33;;;;;18.66;92.92;102172.81;5056760;28;60231;-70
2022/06/12 06:59:49;;;;;;;;;7.00;2.00;;;;;18.66;93.07;102177.28;5057265;28;57349;-70
2022/06/12 07:02:15;;;;;;;;;5.67;3.00;;;;;18.69;92.22;102179.97;5056405;28;64136;-71
2022/06/12 07:04:40;;;;;;;;;8.33;3.00;;;;;18.70;92.77;102184.47;5057002;28;66570;-71
2022/06/12 07:07:08;;;;;;;;;4.33;3.00;;;;;18.74;93.08;102183.53;5056077;28;45317;-70
2022/06/12 07:09:34;;;;;;;;;6.33;1.67;;;;;18.82;93.44;102181.75;5057684;28;45453;-71
2022/06/12 07:11:59;;;;;;;;;5.00;3.67;;;;;18.85;93.60;102179.06;5057917;28;45693;-70
2022/06/12 07:14:25;;;;;;;;;6.00;4.33;;;;;18.90;94.21;102179.06;5057064;28;46023;-70
2022/06/12 07:16:50;;;;;;;;;5.00;3.00;;;;;18.95;92.58;102188.84;5055975;28;45293;-71
2022/06/12 07:19:15;;;;;;;;;4.00;3.00;;;;;18.98;92.70;102183.50;5056047;28;45188;-69
2022/06/12 07:21:41;;;;;;;;;5.00;3.33;;;;;19.05;93.24;102182.59;5051834;28;58887;-70
2022/06/12 07:24:07;;;;;;;;;4.00;2.00;;;;;19.09;93.31;102178.13;5055600;28;46580;-71
2022/06/12 07:26:36;;;;;;;;;5.00;4.00;;;;;19.13;93.28;102184.38;5056287;28;45546;-71
2022/06/12 07:29:02;;;;;;;;;4.00;3.00;;;;;19.15;93.23;102187.94;5055711;28;45516;-70
2022/06/12 07:31:28;;;;;;;;;5.00;3.33;;;;;19.20;93.04;102187.00;5055643;28;45503;-69
2022/06/12 07:33:53;;;;;;;;;4.67;2.00;;;;;19.24;93.97;102178.09;5056363;28;46350;-70
2022/06/12 07:36:19;;;;;;;;;9.33;4.00;;;;;19.28;92.58;102179.88;5055629;28;61970;-69
2022/06/12 07:38:46;;;;;;;;;8.00;3.00;;;;;19.33;93.18;102185.19;5055923;28;54358;-70
2022/06/12 07:41:13;;;;;;;;;2.33;2.33;;;;;19.40;92.36;102191.44;5055102;28;45465;-70
2022/06/12 07:43:39;;;;;;;;;3.33;2.67;;;;;19.48;92.43;102184.22;5056311;28;45810;-70
2022/06/12 07:46:07;;;;;;;;;6.00;3.00;;;;;19.53;92.33;102182.44;5056354;28;45478;-70
2022/06/12 07:48:33;;;;;;;;;3.00;2.00;;;;;19.57;91.54;102181.53;5056796;28;45409;-71
2022/06/12 07:51:00;;;;;;;;;6.67;4.00;;;;;19.63;93.00;102181.53;5051418;28;52136;-71
2022/06/12 07:53:26;;;;;;;;;4.33;2.33;;;;;19.69;91.85;102178.81;5057055;28;46704;-70
2022/06/12 07:55:53;;;;;;;;;5.67;3.00;;;;;19.72;90.42;102178.81;5056016;28;45441;-70
2022/06/12 07:58:20;;;;;;;;;2.33;2.33;;;;;19.74;90.31;102182.34;5055377;28;45402;-70
2022/06/12 08:00:47;;;;;;;;;6.00;1.67;;;;;19.73;90.31;102177.91;5055333;28;45522;-70
2022/06/12 08:03:13;;;;;;;;;2.67;2.00;;;;;19.75;89.39;102186.81;5056321;28;46408;-69
2022/06/12 08:05:38;;;;;;;;;2.00;2.00;;;;;19.78;89.50;102188.59;5056489;28;45338;-70
2022/06/12 08:08:04;;;;;;;;;4.00;2.00;;;;;19.79;88.00;102183.22;5055559;28;45810;-70
2022/06/12 08:10:30;;;;;;;;;4.00;2.00;;;;;19.85;87.54;102193.00;5056515;28;45489;-72
2022/06/12 08:12:57;;;;;;;;;6.00;3.00;;;;;19.88;86.00;102183.19;5056502;28;46434;-73
2022/06/12 08:15:26;;;;;;;;;3.33;2.00;;;;;19.91;86.77;102184.03;5056499;28;45448;-73
2022/06/12 08:17:53;;;;;;;;;2.00;2.00;;;;;19.94;87.88;102184.94;5054799;28;45541;-73
2022/06/12 08:20:24;;;;;;;;;2.33;2.33;;;;;19.97;86.98;102179.53;5056512;28;45435;-73
2022/06/12 08:22:54;;;;;;;;;1.00;1.00;;;;;20.01;85.70;102172.38;5056454;28;46589;-73
2022/06/12 08:25:20;;;;;;;;;2.33;2.33;;;;;20.03;85.87;102167.91;5054419;28;45364;-73
2022/06/12 08:27:46;;;;;;;;;2.67;2.00;;;;;20.03;84.54;102168.78;5054411;28;45837;-72
2022/06/12 08:30:12;;;;;;;;;2.00;2.00;;;;;20.03;83.54;102170.59;5052420;28;45713;-74
2022/06/12 08:32:38;;;;;;;;;3.00;1.00;;;;;20.02;82.41;102163.41;5054297;28;46869;-72
2022/06/12 08:35:07;;;;;;;;;3.00;2.00;;;;;20.03;83.65;102160.75;5052792;28;45497;-73
2022/06/12 08:37:37;;;;;;;;;2.33;1.00;;;;;20.11;84.67;102166.94;5054063;28;45505;-73
2022/06/12 08:40:04;;;;;;;;;1.33;1.33;;;;;20.20;84.25;102160.63;5053748;28;45269;-73
2022/06/12 08:42:41;;;;;;;;;5.00;1.33;;;;;20.30;82.99;102156.97;5063044;28;46559;-73
2022/06/12 08:45:21;;;;;;;;;4.00;2.00;;;;;20.34;79.51;102156.00;5054430;28;45395;-72
2022/06/12 08:48:11;;;;;;;;;1.00;1.00;;;;;20.42;81.33;102154.16;5046489;28;45488;-72
2022/06/12 08:50:53;;;;;;;;;1.33;1.00;;;;;20.51;80.48;102141.63;5051293;28;45525;-72
2022/06/12 08:53:28;;;;;;;;;2.67;2.00;;;;;20.57;79.48;102147.81;5058381;28;45494;-71
2022/06/12 08:56:04;;;;;;;;;1.67;1.67;;;;;20.61;80.19;102140.59;5054421;28;45442;-71
2022/06/12 08:58:34;;;;;;;;;2.00;2.00;;;;;20.64;80.72;102146.84;5053653;28;45490;-69
2022/06/12 09:01:00;;;;;;;;;3.67;1.67;;;;;20.65;81.03;102137.88;5054232;28;45507;-71
2022/06/12 09:03:31;;;;;;;;;1.00;1.00;;;;;20.69;79.43;102141.44;5053694;28;61019;-71
2022/06/12 09:06:08;;;;;;;;;3.00;1.33;;;;;20.75;79.25;102143.16;5053768;28;45419;-71
2022/06/12 09:08:57;;;;;;;;;3.00;2.00;;;;;20.80;78.26;102144.88;5051785;28;46575;-71
2022/06/12 09:11:29;;;;;;;;;1.67;1.00;;;;;20.85;78.08;102142.16;5054203;28;45530;-71
2022/06/12 09:14:10;;;;;;;;;2.00;1.00;;;;;20.90;79.04;102146.56;5054941;28;46416;-72
2022/06/12 09:17:26;;;;;;;;;5.33;2.00;;;;;20.99;79.18;102145.59;5053839;28;45574;-71
2022/06/12 09:20:05;;;;;;;;;2.67;1.00;;;;;21.11;79.50;102140.06;5023918;28;45547;-72
2022/06/12 09:22:42;;;;;;;;;3.00;1.67;;;;;21.23;77.16;102132.78;5057291;28;45492;-71
2022/06/12 09:25:23;;;;;;;;;0.00;0.00;;;;;21.26;74.77;102132.75;5061039;28;45992;-71
2022/06/12 09:28:14;;;;;;;;;2.00;0.67;;;;;21.26;73.66;102135.44;4958959;22;46057;-71
2022/06/12 09:30:44;;;;;;;;;1.33;1.00;;;;;21.28;71.41;102139.88;5067976;27;45459;-73
2022/06/12 09:33:18;;;;;;;;;2.00;1.00;;;;;21.31;73.95;102137.19;5074968;27;45234;-73
2022/06/12 09:35:56;;;;;;;;;5.00;2.00;;;;;21.34;74.33;102126.38;5071165;27;47358;-72
2022/06/12 09:38:41;;;;;;;;;0.67;0.67;;;;;21.38;74.06;102129.94;5074435;27;45539;-71
2022/06/12 09:41:19;;;;;;;;;1.67;1.00;;;;;21.47;71.65;102134.31;5071915;27;45497;-71
2022/06/12 09:43:57;;;;;;;;;1.00;1.00;;;;;21.59;73.79;102134.13;5070258;28;45537;-72
2022/06/12 09:46:34;;;;;;;;;3.33;2.00;;;;;21.72;73.45;102133.03;5071487;27;46744;-72
2022/06/12 09:49:28;;;;;;;;;4.67;2.00;;;;;21.78;73.66;102126.66;5072489;27;45379;-72
2022/06/12 09:52:09;;;;;;;;;1.00;1.00;;;;;21.80;72.35;102125.75;5031747;28;45405;-71
2022/06/12 09:54:49;;;;;;;;;2.00;1.00;;;;;21.85;73.46;102131.06;5066261;28;45404;-71
2022/06/12 09:57:27;;;;;;;;;1.00;1.00;;;;;21.93;74.11;102134.50;5074477;28;47331;-70
2022/06/12 10:00:16;;;;;;;;;2.00;1.67;;;;;22.01;71.52;102137.09;5079095;27;45240;-71
2022/06/12 10:02:47;;;;;;;;;4.67;2.00;;;;;22.05;70.49;102136.13;5077237;27;45219;-71
2022/06/12 10:05:24;;;;;;;;;2.33;1.33;;;;;22.09;69.71;102145.91;5079349;27;45405;-72
2022/06/12 10:08:07;;;;;;;;;4.00;1.00;;;;;22.08;69.90;102142.34;5069757;27;45954;-71
2022/06/12 10:10:47;;;;;;;;;1.00;1.00;;;;;22.08;69.55;102136.97;5084526;27;45482;-72
2022/06/12 10:13:24;;;;;;;;;1.00;1.00;;;;;22.10;69.89;102140.53;5070212;27;45479;-72
2022/06/12 10:15:56;;;;;;;;;5.67;2.00;;;;;22.13;69.64;102145.00;5078493;27;45385;-72
2022/06/12 10:18:29;;;;;;;;;3.00;3.00;;;;;22.14;69.58;102130.63;5065056;28;46386;-70
2022/06/12 10:21:01;;;;;;;;;4.00;4.00;;;;;22.18;69.44;102130.56;5076830;27;45480;-71
2022/06/12 10:23:27;;;;;;;;;8.33;4.00;;;;;22.20;72.88;102131.41;5076793;27;45303;-72
2022/06/12 10:25:56;;;;;;;;;8.33;4.00;;;;;22.21;74.75;102125.13;5076906;27;45330;-71
2022/06/12 10:28:24;;;;;;;;;3.67;3.67;;;;;22.28;74.13;102128.59;5076966;27;45946;-71
2022/06/12 10:31:14;;;;;;;;;6.00;4.00;;;;;22.28;73.98;102125.91;5077738;27;45264;-71
2022/06/12 10:33:47;;;;;;;;;5.67;3.00;;;;;22.28;74.51;102128.59;5068508;28;45436;-71
2022/06/12 10:36:25;;;;;;;;;4.33;4.33;;;;;22.30;74.50;102124.06;5071256;27;45561;-71
2022/06/12 10:39:01;;;;;;;;;4.67;2.00;;;;;22.32;74.71;102115.97;5077077;27;46620;-72
2022/06/12 10:41:28;;;;;;;;;5.00;3.67;;;;;22.33;73.81;102107.88;5075431;27;45483;-71
2022/06/12 10:43:58;;;;;;;;;6.00;6.00;;;;;22.39;73.97;102110.47;5076917;27;45489;-70
2022/06/12 10:46:31;;;;;;;;;9.00;6.33;;;;;22.42;74.01;102106.81;5074461;27;45502;-69
2022/06/12 10:49:04;;;;;;;;;3.00;3.00;;;;;22.48;73.36;102098.66;5074899;27;45661;-72
2022/06/12 10:51:40;;;;;;;;;9.67;7.00;;;;;22.50;73.33;102091.44;5062799;27;45734;-71
2022/06/12 10:54:13;;;;;;;;;10.67;5.00;;;;;22.56;73.20;102094.00;5068849;27;46649;-71
2022/06/12 10:57:02;;;;;;;;;4.67;2.33;;;;;22.58;69.61;102088.59;5066676;27;45465;-71
2022/06/12 10:59:58;;;;;;;;;3.00;3.00;;;;;22.62;70.08;102074.16;5064106;27;46358;-72
2022/06/12 11:02:26;;;;;;;;;6.67;5.00;;;;;22.68;70.48;102090.19;5065158;27;45510;-71
2022/06/12 11:05:05;;;;;;;;;7.00;5.00;;;;;22.73;71.27;102091.88;5077516;27;45231;-72
2022/06/12 11:08:02;;;;;;;;;4.00;4.00;;;;;22.78;71.23;102083.72;5070219;27;45389;-72
2022/06/12 11:10:43;;;;;;;;;13.00;12.00;;;;;22.86;71.10;102086.28;5031524;28;45620;-71
2022/06/12 11:14:01;;;;;;;;;6.00;6.00;;;;;22.87;70.38;102074.56;5067569;27;45485;-73
2022/06/12 11:16:47;;;;;;;;;18.33;11.33;;;;;22.89;70.44;102070.94;5032072;28;45511;-71
2022/06/12 11:19:34;;;;;;;;;7.33;7.00;;;;;22.95;69.86;102064.53;5018518;28;45484;-71
2022/06/12 11:22:11;;;;;;;;;8.00;8.00;;;;;22.97;67.70;102050.13;5060769;27;45826;-71
2022/06/12 11:25:04;;;;;;;;;7.67;7.00;;;;;23.02;67.13;102051.84;5068474;27;45229;-72
2022/06/12 11:27:58;;;;;;;;;14.33;13.00;;;;;23.10;68.00;102050.75;5074721;27;45476;-72
2022/06/12 11:31:14;;;;;;;;;5.00;1.33;;;;;23.19;68.61;102039.78;5077064;27;45511;-72
2022/06/12 11:34:06;;;;;;;;;5.67;5.00;;;;;23.27;68.58;102036.91;5021443;27;46645;-72
2022/06/12 11:36:38;;;;;;;;;5.00;5.00;;;;;23.36;67.99;102047.47;5072522;27;45650;-71
2022/06/12 11:39:15;;;;;;;;;3.33;3.00;;;;;23.43;64.49;102038.31;5067320;27;45561;-71
2022/06/12 11:42:07;;;;;;;;;4.67;4.00;;;;;23.45;65.16;102039.19;5066596;27;45524;-72
2022/06/12 11:44:42;;;;;;;;;5.33;5.00;;;;;23.49;64.96;102031.94;5069227;27;46726;-70
2022/06/12 11:47:26;;;;;;;;;6.00;4.33;;;;;23.55;65.59;102015.59;5072661;27;45444;-71
2022/06/12 11:49:58;;;;;;;;;4.00;4.00;;;;;23.69;65.99;102015.28;5058462;28;45555;-72
2022/06/12 11:52:40;;;;;;;;;4.00;4.00;;;;;23.84;66.30;102017.59;5076468;27;45472;-73
2022/06/12 11:55:05;;;;;;;;;5.00;5.00;;;;;23.96;65.93;102013.69;5074479;27;46112;-74
2022/06/12 11:58:08;;;;;;;;;5.00;5.00;;;;;24.12;65.45;102011.47;5071387;27;45453;-72
2022/06/12 12:00:41;;;;;;;;;42.25;35.50;;;;;24.28;66.43;102007.44;5073078;27;45441;-71
2022/06/12 12:03:09;;;;;;;;;9.67;9.67;;;;;24.43;61.90;102016.97;5070480;27;45259;-71